createdAt,value
2022-11-07T00:01:38.374Z,8.98
2022-11-07T00:04:05.071Z,9.00
2022-11-07T00:06:31.663Z,9.04
2022-11-07T00:08:58.997Z,9.08
2022-11-07T00:11:25.417Z,9.00
2022-11-07T00:13:51.802Z,9.06
2022-11-07T00:16:19.845Z,9.06
2022-11-07T00:18:46.373Z,8.97
2022-11-07T00:21:13.668Z,9.03
2022-11-07T00:23:41.609Z,9.04
2022-11-07T00:26:10.936Z,9.04
2022-11-07T00:28:39.459Z,9.10
2022-11-07T00:31:08.371Z,9.05
2022-11-07T00:33:34.847Z,8.98
2022-11-07T00:36:03.291Z,8.86
2022-11-07T00:38:30.355Z,8.69
2022-11-07T00:40:59.278Z,8.62
2022-11-07T00:43:26.697Z,8.59
2022-11-07T00:45:54.481Z,8.57
2022-11-07T00:48:21.793Z,8.56
2022-11-07T00:50:49.132Z,8.54
2022-11-07T00:53:16.287Z,8.51
2022-11-07T00:55:43.119Z,8.48
2022-11-07T00:58:13.863Z,8.48
2022-11-07T01:00:48.469Z,8.52
2022-11-07T01:03:33.610Z,8.53
2022-11-07T01:06:02.038Z,8.51
2022-11-07T01:08:29.583Z,8.55
2022-11-07T01:10:58.275Z,8.56
2022-11-07T01:13:26.215Z,8.51
2022-11-07T01:15:53.163Z,8.55
2022-11-07T01:18:19.925Z,8.55
2022-11-07T01:20:47.936Z,8.52
2022-11-07T01:23:16.045Z,8.55
2022-11-07T01:25:44.660Z,8.52
2022-11-07T01:28:11.720Z,8.53
2022-11-07T01:30:41.772Z,8.49
2022-11-07T01:33:08.431Z,8.51
2022-11-07T01:35:35.941Z,8.54
2022-11-07T01:38:02.691Z,8.53
2022-11-07T01:40:29.382Z,8.55
2022-11-07T01:42:56.017Z,8.53
2022-11-07T01:45:27.905Z,8.59
2022-11-07T01:47:56.343Z,8.58
2022-11-07T01:50:24.766Z,8.61
2022-11-07T01:52:52.674Z,8.59
2022-11-07T01:55:32.021Z,8.57
2022-11-07T01:58:04.851Z,8.55
2022-11-07T02:00:32.257Z,8.58
2022-11-07T02:03:06.219Z,8.58
2022-11-07T02:05:35.720Z,8.57
2022-11-07T02:08:05.198Z,8.46
2022-11-07T02:10:32.466Z,8.47
2022-11-07T02:12:59.575Z,8.37
2022-11-07T02:15:26.849Z,8.33
2022-11-07T02:17:54.123Z,8.26
2022-11-07T02:20:29.455Z,8.21
2022-11-07T02:23:01.574Z,8.16
2022-11-07T02:25:29.728Z,8.08
2022-11-07T02:28:02.296Z,8.12
2022-11-07T02:30:33.641Z,8.11
2022-11-07T02:33:01.432Z,8.12
2022-11-07T02:35:45.689Z,8.11
2022-11-07T02:38:31.103Z,8.08
2022-11-07T02:41:01.073Z,8.08
2022-11-07T02:43:29.627Z,8.06
2022-11-07T02:45:59.260Z,7.99
2022-11-07T02:48:41.271Z,7.96
2022-11-07T02:51:07.811Z,7.85
2022-11-07T02:53:34.716Z,7.78
2022-11-07T02:56:01.303Z,7.78
2022-11-07T02:58:27.760Z,7.66
2022-11-07T03:00:55.274Z,7.68
2022-11-07T03:03:21.870Z,7.57
2022-11-07T03:05:48.408Z,7.41
2022-11-07T03:08:14.866Z,7.37
2022-11-07T03:10:41.298Z,7.50
2022-11-07T03:13:07.797Z,7.58
2022-11-07T03:15:34.425Z,7.62
2022-11-07T03:18:00.918Z,7.56
2022-11-07T03:20:27.505Z,7.68
2022-11-07T03:22:54.034Z,7.55
2022-11-07T03:25:20.546Z,7.62
2022-11-07T03:27:50.728Z,7.44
2022-11-07T03:30:17.633Z,7.42
2022-11-07T03:32:44.268Z,7.16
2022-11-07T03:35:10.987Z,7.10
2022-11-07T03:37:37.692Z,7.15
2022-11-07T03:40:04.660Z,7.09
2022-11-07T03:42:31.739Z,7.07
2022-11-07T03:44:58.335Z,6.95
2022-11-07T03:47:24.793Z,6.86
2022-11-07T03:49:51.199Z,6.90
2022-11-07T03:52:17.669Z,6.78
2022-11-07T03:54:44.284Z,6.84
2022-11-07T03:57:10.716Z,6.92
2022-11-07T03:59:37.114Z,7.05
2022-11-07T04:02:03.719Z,7.21
2022-11-07T04:04:30.304Z,7.51
2022-11-07T04:06:57.801Z,7.55
2022-11-07T04:09:24.198Z,7.57
2022-11-07T04:12:09.285Z,7.70
2022-11-07T04:14:54.589Z,7.72
2022-11-07T04:17:21.230Z,7.67
2022-11-07T04:19:54.737Z,7.71
2022-11-07T04:22:22.560Z,7.93
2022-11-07T04:24:49.078Z,8.08
2022-11-07T04:27:35.416Z,8.11
2022-11-07T04:30:21.655Z,8.04
2022-11-07T04:32:56.928Z,8.02
2022-11-07T04:35:29.641Z,8.04
2022-11-07T04:37:56.224Z,8.12
2022-11-07T04:40:22.659Z,8.18
2022-11-07T04:42:50.362Z,8.34
2022-11-07T04:45:17.530Z,8.37
2022-11-07T04:47:44.264Z,8.36
2022-11-07T04:50:15.049Z,8.39
2022-11-07T04:52:41.742Z,8.27
2022-11-07T04:55:17.783Z,8.32
2022-11-07T04:57:44.444Z,8.29
2022-11-07T05:00:11.364Z,8.43
2022-11-07T05:02:37.860Z,8.63
2022-11-07T05:05:04.604Z,8.53
2022-11-07T05:07:31.049Z,8.47
2022-11-07T05:09:57.613Z,8.45
2022-11-07T05:12:25.275Z,8.71
2022-11-07T05:14:51.668Z,8.64
2022-11-07T05:17:18.367Z,8.82
2022-11-07T05:19:47.744Z,8.80
2022-11-07T05:22:32.758Z,8.84
2022-11-07T05:24:59.116Z,8.85
2022-11-07T05:27:26.797Z,8.77
2022-11-07T05:29:53.602Z,8.65
2022-11-07T05:32:20.243Z,8.61
2022-11-07T05:34:46.806Z,8.53
2022-11-07T05:37:13.792Z,8.51
2022-11-07T05:39:40.581Z,8.54
2022-11-07T05:42:07.289Z,8.39
2022-11-07T05:44:33.696Z,8.49
2022-11-07T05:47:02.131Z,8.45
2022-11-07T05:49:28.697Z,8.41
2022-11-07T05:51:55.236Z,8.24
2022-11-07T05:54:21.704Z,8.20
2022-11-07T05:56:48.171Z,8.25
2022-11-07T05:59:15.271Z,8.25
2022-11-07T06:01:42.015Z,8.07
2022-11-07T06:04:08.525Z,8.02
2022-11-07T06:06:34.954Z,7.83
2022-11-07T06:09:09.143Z,7.75
2022-11-07T06:11:35.611Z,7.71
2022-11-07T06:14:04.980Z,7.74
2022-11-07T06:16:31.606Z,7.70
2022-11-07T06:18:57.987Z,7.72
2022-11-07T06:21:24.602Z,7.72
2022-11-07T06:23:51.083Z,7.77
2022-11-07T06:26:17.524Z,7.76
2022-11-07T06:28:43.942Z,7.84
2022-11-07T06:31:11.147Z,7.88
2022-11-07T06:33:37.527Z,8.04
2022-11-07T06:36:08.717Z,7.97
2022-11-07T06:38:36.183Z,7.91
2022-11-07T06:41:09.982Z,8.10
2022-11-07T06:43:36.993Z,8.45
2022-11-07T06:46:08.871Z,8.55
2022-11-07T06:48:35.298Z,8.84
2022-11-07T06:51:04.873Z,8.92
2022-11-07T06:53:31.876Z,9.10
2022-11-07T06:56:02.742Z,9.29
2022-11-07T06:58:29.257Z,9.31
2022-11-07T07:01:04.217Z,9.33
2022-11-07T07:03:32.004Z,9.13
2022-11-07T07:06:02.836Z,8.91
2022-11-07T07:08:29.517Z,8.96
2022-11-07T07:10:56.286Z,9.42
2022-11-07T07:13:23.198Z,9.53
2022-11-07T07:15:57.596Z,10.01
2022-11-07T07:18:25.758Z,10.24
2022-11-07T07:20:53.240Z,10.83
2022-11-07T07:23:20.591Z,11.46
2022-11-07T07:25:49.539Z,12.16
2022-11-07T07:28:16.140Z,12.23
2022-11-07T07:30:47.137Z,12.78
2022-11-07T07:33:17.298Z,13.68
2022-11-07T07:35:43.937Z,13.68
2022-11-07T07:38:11.476Z,12.79
2022-11-07T07:40:38.910Z,12.72
2022-11-07T07:43:05.308Z,13.11
2022-11-07T07:45:31.812Z,13.08
2022-11-07T07:48:02.479Z,14.03
2022-11-07T07:50:28.983Z,14.37
2022-11-07T07:52:57.316Z,14.04
2022-11-07T07:55:24.392Z,14.93
2022-11-07T07:57:51.131Z,15.04
2022-11-07T08:00:17.957Z,15.59
2022-11-07T08:02:44.496Z,15.93
2022-11-07T08:05:12.736Z,16.20
2022-11-07T08:07:48.913Z,16.65
2022-11-07T08:10:40.186Z,16.81
2022-11-07T08:13:02.410Z,16.17
2022-11-07T08:15:30.263Z,17.30
2022-11-07T08:18:00.946Z,17.67
2022-11-07T08:20:28.011Z,18.29
2022-11-07T08:23:06.901Z,17.70
2022-11-07T08:25:36.278Z,17.81
2022-11-07T08:28:02.736Z,18.60
2022-11-07T08:30:31.498Z,18.07
2022-11-07T08:33:03.150Z,18.98
2022-11-07T08:35:30.689Z,18.39
2022-11-07T08:37:57.980Z,18.19
2022-11-07T08:40:24.880Z,18.02
2022-11-07T08:42:51.732Z,18.48
2022-11-07T08:45:18.904Z,18.41
2022-11-07T08:47:45.495Z,20.25
2022-11-07T08:50:11.940Z,21.24
2022-11-07T08:52:38.562Z,22.33
2022-11-07T08:55:05.562Z,21.56
2022-11-07T08:57:32.479Z,20.60
2022-11-07T08:59:58.912Z,21.65
2022-11-07T09:03:08.358Z,22.01
2022-11-07T09:05:11.651Z,21.42
2022-11-07T09:07:39.340Z,20.79
2022-11-07T09:10:11.663Z,19.41
2022-11-07T09:12:45.665Z,21.57
2022-11-07T09:15:12.066Z,21.01
2022-11-07T09:17:38.799Z,21.25
2022-11-07T09:20:11.371Z,22.11
2022-11-07T09:22:37.784Z,21.82
2022-11-07T09:25:04.521Z,20.41
2022-11-07T09:27:30.927Z,19.57
2022-11-07T09:29:57.307Z,18.37
2022-11-07T09:32:44.004Z,18.69
2022-11-07T09:35:10.624Z,18.62
2022-11-07T09:37:41.729Z,20.39
2022-11-07T09:40:24.657Z,21.35
2022-11-07T09:43:04.610Z,20.65
2022-11-07T09:45:31.225Z,22.46
2022-11-07T09:48:02.256Z,24.14
2022-11-07T09:50:36.225Z,22.73
2022-11-07T09:53:18.604Z,23.20
2022-11-07T09:55:52.124Z,23.70
2022-11-07T09:58:45.357Z,21.73
2022-11-07T10:01:14.651Z,21.54
2022-11-07T10:03:52.899Z,21.32
2022-11-07T10:06:36.220Z,21.39
2022-11-07T10:09:17.396Z,20.63
2022-11-07T10:12:09.256Z,20.41
2022-11-07T10:14:39.478Z,21.24
2022-11-07T10:17:29.341Z,21.73
2022-11-07T10:20:05.628Z,21.85
2022-11-07T10:22:53.308Z,20.99
2022-11-07T10:25:57.541Z,22.20
2022-11-07T10:28:25.606Z,21.79
2022-11-07T10:30:53.024Z,20.52
2022-11-07T10:33:36.710Z,19.03
2022-11-07T10:36:09.628Z,18.57
2022-11-07T10:38:40.571Z,19.09
2022-11-07T10:41:28.687Z,19.89
2022-11-07T10:44:00.911Z,20.28
2022-11-07T10:46:43.113Z,19.82
2022-11-07T10:49:26.950Z,19.58
2022-11-07T10:52:17.791Z,19.47
2022-11-07T10:54:45.140Z,20.32
2022-11-07T10:57:23.387Z,21.41
2022-11-07T10:59:50.191Z,21.63
2022-11-07T11:02:16.847Z,20.73
2022-11-07T11:04:51.021Z,21.12
2022-11-07T11:07:21.819Z,20.36
2022-11-07T11:09:56.117Z,19.87
2022-11-07T11:12:26.917Z,19.93
2022-11-07T11:15:14.202Z,20.34
2022-11-07T11:17:41.233Z,21.09
2022-11-07T11:20:39.821Z,20.34
2022-11-07T11:23:19.609Z,20.25
2022-11-07T11:25:48.839Z,20.63
2022-11-07T11:28:42.215Z,20.67
2022-11-07T11:31:24.904Z,21.24
2022-11-07T11:33:56.746Z,21.13
2022-11-07T11:36:25.573Z,22.07
2022-11-07T11:38:55.558Z,23.16
2022-11-07T11:41:29.224Z,23.50
2022-11-07T11:44:01.212Z,21.72
2022-11-07T11:46:31.101Z,21.42
2022-11-07T11:49:23.706Z,21.22
2022-11-07T11:51:53.265Z,20.76
2022-11-07T11:54:19.756Z,20.58
2022-11-07T11:57:01.624Z,20.50
2022-11-07T11:59:35.337Z,19.56
2022-11-07T12:02:05.089Z,18.97
2022-11-07T12:04:39.574Z,18.27
2022-11-07T12:07:26.064Z,17.43
2022-11-07T12:09:58.951Z,17.26
2022-11-07T12:12:48.585Z,16.52
2022-11-07T12:15:36.944Z,16.79
2022-11-07T12:18:15.715Z,16.73
2022-11-07T12:21:13.242Z,16.90
2022-11-07T12:24:11.014Z,16.83
2022-11-07T12:26:45.013Z,16.72
2022-11-07T12:29:20.680Z,16.70
2022-11-07T12:31:49.983Z,16.56
2022-11-07T12:34:48.818Z,16.62
2022-11-07T12:37:15.329Z,16.62
2022-11-07T12:40:01.964Z,16.72
2022-11-07T12:43:07.359Z,16.54
2022-11-07T12:45:45.623Z,16.72
2022-11-07T12:48:37.742Z,17.03
2022-11-07T12:51:10.304Z,16.67
2022-11-07T12:54:18.624Z,16.55
2022-11-07T12:56:48.082Z,16.50
2022-11-07T12:59:21.705Z,16.26
2022-11-07T13:01:59.250Z,16.20
2022-11-07T13:04:58.301Z,16.13
2022-11-07T13:07:51.272Z,16.26
2022-11-07T13:10:28.680Z,16.01
2022-11-07T13:13:21.342Z,16.01
2022-11-07T13:16:13.990Z,16.14
2022-11-07T13:18:34.541Z,16.20
2022-11-07T13:21:02.621Z,16.04
2022-11-07T13:23:41.504Z,15.90
2022-11-07T13:26:26.213Z,15.93
2022-11-07T13:29:01.320Z,15.77
2022-11-07T13:31:38.724Z,15.90
2022-11-07T13:34:19.610Z,15.89
2022-11-07T13:36:47.791Z,16.03
2022-11-07T13:39:15.001Z,16.17
2022-11-07T13:41:44.527Z,16.24
2022-11-07T13:44:18.936Z,16.06
2022-11-07T13:46:49.058Z,15.76
2022-11-07T13:49:20.985Z,15.99
2022-11-07T13:51:51.228Z,16.29
2022-11-07T13:54:27.688Z,16.67
2022-11-07T13:57:07.373Z,16.86
2022-11-07T13:59:44.129Z,17.06
2022-11-07T14:02:22.594Z,17.28
2022-11-07T14:05:14.669Z,17.12
2022-11-07T14:07:40.292Z,17.17
2022-11-07T14:10:16.397Z,17.20
2022-11-07T14:12:43.460Z,16.95
2022-11-07T14:15:14.663Z,16.28
2022-11-07T14:17:41.177Z,16.11
2022-11-07T14:20:19.775Z,16.22
2022-11-07T14:22:50.630Z,15.75
2022-11-07T14:25:31.634Z,15.63
2022-11-07T14:27:59.244Z,15.44
2022-11-07T14:30:27.698Z,15.46
2022-11-07T14:32:56.644Z,15.39
2022-11-07T14:35:26.609Z,15.40
2022-11-07T14:37:53.036Z,15.43
2022-11-07T14:40:19.714Z,15.22
2022-11-07T14:42:46.661Z,15.29
2022-11-07T14:45:39.100Z,15.11
2022-11-07T14:48:05.648Z,15.11
2022-11-07T14:50:34.319Z,15.17
2022-11-07T14:53:09.254Z,14.98
2022-11-07T14:55:57.431Z,15.02
2022-11-07T14:58:25.161Z,14.94
2022-11-07T15:00:57.415Z,14.96
2022-11-07T15:03:31.460Z,14.85
2022-11-07T15:05:58.183Z,14.89
2022-11-07T15:08:34.706Z,14.96
2022-11-07T15:11:18.617Z,15.04
2022-11-07T15:13:47.656Z,14.99
2022-11-07T15:16:16.816Z,15.03
2022-11-07T15:18:45.015Z,15.00
2022-11-07T15:21:33.972Z,14.87
2022-11-07T15:24:01.725Z,14.90
2022-11-07T15:26:32.814Z,14.75
2022-11-07T15:29:20.058Z,14.75
2022-11-07T15:31:48.612Z,14.59
2022-11-07T15:34:25.305Z,14.66
2022-11-07T15:37:11.185Z,14.61
2022-11-07T15:39:37.932Z,14.49
2022-11-07T15:42:04.517Z,14.70
2022-11-07T15:44:31.346Z,14.61
2022-11-07T15:47:05.678Z,14.60
2022-11-07T15:49:33.949Z,14.69
2022-11-07T15:52:01.098Z,14.64
2022-11-07T15:54:27.826Z,14.68
2022-11-07T15:56:59.233Z,14.59
2022-11-07T15:59:30.418Z,14.62
2022-11-07T16:01:57.263Z,14.59
2022-11-07T16:04:23.879Z,14.53
2022-11-07T16:06:50.370Z,14.63
2022-11-07T16:09:19.161Z,14.58
2022-11-07T16:11:46.663Z,14.57
2022-11-07T16:14:42.426Z,14.53
2022-11-07T16:17:06.702Z,14.49
2022-11-07T16:19:33.072Z,14.55
2022-11-07T16:21:59.423Z,14.59
2022-11-07T16:24:25.999Z,14.44
2022-11-07T16:26:52.485Z,14.54
2022-11-07T16:29:19.065Z,14.45
2022-11-07T16:31:45.490Z,14.60
2022-11-07T16:34:12.116Z,14.56
2022-11-07T16:36:39.275Z,14.51
2022-11-07T16:39:07.940Z,14.46
2022-11-07T16:41:34.615Z,14.49
2022-11-07T16:44:01.036Z,14.48
2022-11-07T16:46:28.811Z,14.42
2022-11-07T16:49:04.604Z,14.43
2022-11-07T16:51:31.001Z,14.39
2022-11-07T16:53:57.420Z,14.42
2022-11-07T16:56:30.325Z,14.43
2022-11-07T16:58:57.689Z,14.44
2022-11-07T17:01:25.278Z,14.37
2022-11-07T17:03:52.445Z,14.37
2022-11-07T17:06:31.246Z,14.29
2022-11-07T17:09:07.158Z,14.22
2022-11-07T17:11:37.720Z,14.30
2022-11-07T17:14:04.132Z,14.36
2022-11-07T17:16:34.744Z,14.30
2022-11-07T17:19:01.641Z,14.29
2022-11-07T17:21:32.682Z,14.29
2022-11-07T17:24:00.650Z,14.29
2022-11-07T17:26:30.093Z,14.19
2022-11-07T17:28:58.170Z,14.23
2022-11-07T17:31:24.866Z,14.24
2022-11-07T17:33:51.583Z,14.21
2022-11-07T17:36:37.156Z,14.14
2022-11-07T17:39:11.393Z,14.07
2022-11-07T17:41:40.312Z,14.08
2022-11-07T17:44:06.754Z,13.92
2022-11-07T17:46:35.543Z,13.96
2022-11-07T17:49:09.465Z,13.83
2022-11-07T17:51:36.886Z,13.73
2022-11-07T17:54:04.165Z,13.75
2022-11-07T17:56:31.478Z,13.66
2022-11-07T17:59:00.117Z,13.52
2022-11-07T18:01:31.282Z,13.50
2022-11-07T18:03:58.149Z,13.37
2022-11-07T18:06:25.390Z,13.31
2022-11-07T18:08:55.633Z,13.27
2022-11-07T18:11:24.723Z,13.25
2022-11-07T18:13:52.093Z,13.07
2022-11-07T18:16:21.344Z,12.95
2022-11-07T18:18:48.156Z,12.97
2022-11-07T18:21:17.228Z,12.83
2022-11-07T18:23:43.874Z,12.82
2022-11-07T18:26:21.877Z,12.99
2022-11-07T18:28:51.833Z,13.00
2022-11-07T18:31:20.293Z,13.05
2022-11-07T18:33:47.420Z,13.10
2022-11-07T18:36:17.588Z,13.25
2022-11-07T18:38:45.586Z,13.12
2022-11-07T18:41:13.991Z,13.14
2022-11-07T18:43:40.390Z,13.05
2022-11-07T18:46:09.355Z,13.09
2022-11-07T18:48:37.793Z,13.09
2022-11-07T18:51:09.555Z,13.13
2022-11-07T18:53:35.931Z,13.11
2022-11-07T18:56:07.066Z,13.07
2022-11-07T18:58:34.975Z,12.98
2022-11-07T19:01:13.046Z,13.01
2022-11-07T19:03:40.617Z,12.78
2022-11-07T19:06:09.504Z,12.65
2022-11-07T19:08:38.100Z,12.60
2022-11-07T19:11:07.196Z,12.47
2022-11-07T19:13:39.938Z,12.46
2022-11-07T19:16:07.905Z,12.26
2022-11-07T19:18:35.746Z,12.08
2022-11-07T19:21:03.814Z,11.86
2022-11-07T19:23:31.183Z,11.72
2022-11-07T19:25:57.845Z,11.55
2022-11-07T19:28:25.296Z,11.43
2022-11-07T19:30:53.826Z,11.28
2022-11-07T19:33:20.710Z,11.12
2022-11-07T19:35:47.422Z,11.02
2022-11-07T19:38:24.324Z,10.93
2022-11-07T19:40:50.766Z,10.92
2022-11-07T19:43:17.443Z,10.94
2022-11-07T19:45:44.187Z,10.79
2022-11-07T19:48:11.852Z,10.92
2022-11-07T19:50:39.057Z,11.11
2022-11-07T19:53:07.044Z,11.17
2022-11-07T19:55:36.613Z,11.39
2022-11-07T19:58:03.544Z,11.24
2022-11-07T20:00:30.517Z,11.14
2022-11-07T20:02:57.056Z,10.96
2022-11-07T20:05:24.259Z,10.77
2022-11-07T20:07:57.053Z,10.56
2022-11-07T20:10:27.041Z,10.40
2022-11-07T20:12:54.772Z,10.37
2022-11-07T20:15:22.759Z,10.32
2022-11-07T20:17:53.499Z,10.23
2022-11-07T20:20:21.305Z,10.09
2022-11-07T20:22:47.845Z,10.05
2022-11-07T20:25:14.657Z,9.92
2022-11-07T20:27:41.221Z,9.89
2022-11-07T20:30:08.280Z,9.75
2022-11-07T20:32:40.196Z,9.69
2022-11-07T20:35:07.873Z,9.69
2022-11-07T20:37:35.599Z,9.66
2022-11-07T20:40:02.057Z,9.65
2022-11-07T20:42:29.474Z,9.53
2022-11-07T20:44:55.886Z,9.57
2022-11-07T20:47:23.784Z,9.53
2022-11-07T20:49:51.151Z,9.94
2022-11-07T20:52:17.842Z,9.76
2022-11-07T20:54:44.291Z,9.70
2022-11-07T20:57:10.729Z,9.60
2022-11-07T20:59:37.439Z,9.57
2022-11-07T21:02:04.313Z,9.55
2022-11-07T21:04:49.854Z,9.54
2022-11-07T21:07:22.572Z,9.59
2022-11-07T21:09:50.080Z,9.53
2022-11-07T21:12:16.529Z,9.50
2022-11-07T21:14:42.888Z,9.62
2022-11-07T21:17:09.783Z,9.66
2022-11-07T21:19:36.518Z,9.61
2022-11-07T21:22:04.003Z,9.65
2022-11-07T21:24:31.428Z,9.62
2022-11-07T21:26:58.063Z,9.61
2022-11-07T21:29:29.472Z,9.55
2022-11-07T21:31:57.103Z,9.53
2022-11-07T21:34:23.823Z,10.00
2022-11-07T21:36:50.386Z,10.07
2022-11-07T21:39:19.026Z,10.10
2022-11-07T21:41:45.415Z,10.05
2022-11-07T21:44:15.916Z,10.00
2022-11-07T21:46:42.287Z,10.02
2022-11-07T21:49:08.757Z,9.99
2022-11-07T21:51:35.749Z,10.05
2022-11-07T21:54:03.605Z,10.14
2022-11-07T21:56:32.563Z,10.30
2022-11-07T21:59:01.525Z,10.29
2022-11-07T22:01:29.000Z,10.44
2022-11-07T22:04:12.254Z,10.40
2022-11-07T22:06:41.741Z,10.45
2022-11-07T22:09:09.379Z,10.48
2022-11-07T22:11:36.125Z,10.55
2022-11-07T22:14:02.932Z,10.50
2022-11-07T22:16:32.918Z,10.49
2022-11-07T22:19:00.271Z,10.45
2022-11-07T22:21:27.198Z,10.31
2022-11-07T22:23:53.634Z,10.38
2022-11-07T22:26:26.983Z,10.30
2022-11-07T22:28:54.044Z,10.30
2022-11-07T22:31:30.087Z,10.23
2022-11-07T22:33:58.257Z,10.13
2022-11-07T22:36:25.039Z,10.02
2022-11-07T22:38:52.516Z,9.92
2022-11-07T22:41:21.483Z,9.94
2022-11-07T22:43:48.535Z,9.85
2022-11-07T22:46:17.908Z,9.98
2022-11-07T22:48:45.533Z,9.77
2022-11-07T22:51:14.953Z,9.72
2022-11-07T22:53:41.600Z,9.78
2022-11-07T22:56:12.309Z,9.78
2022-11-07T22:58:41.432Z,9.83
2022-11-07T23:01:15.657Z,9.75
2022-11-07T23:03:42.158Z,9.67
2022-11-07T23:06:10.138Z,9.81
2022-11-07T23:08:37.190Z,9.72
2022-11-07T23:11:44.134Z,9.67
2022-11-07T23:14:00.468Z,9.73
2022-11-07T23:16:38.588Z,9.70
2022-11-07T23:19:12.135Z,9.66
2022-11-07T23:21:39.032Z,9.75
2022-11-07T23:24:05.995Z,9.74
2022-11-07T23:26:36.068Z,9.78
2022-11-07T23:29:10.033Z,9.78
2022-11-07T23:31:37.346Z,9.80
2022-11-07T23:34:08.688Z,9.82
2022-11-07T23:36:35.755Z,9.81
2022-11-07T23:39:06.833Z,9.86
2022-11-07T23:41:34.740Z,9.84
2022-11-07T23:44:01.535Z,9.84
2022-11-07T23:46:46.758Z,9.82
2022-11-07T23:49:31.850Z,9.90
2022-11-07T23:52:03.819Z,9.99
2022-11-07T23:54:49.059Z,10.03
2022-11-07T23:57:15.500Z,10.29
